sensor_id;sensor_type;location;lat;lon;timestamp;P1;durP1;ratioP1;P2;durP2;ratioP2
13408;SDS011;6775;49.574;11.170;2023-03-04T00:01:07;16.87;;;9.90;;
13408;SDS011;6775;49.574;11.170;2023-03-04T00:03:35;19.40;;;10.70;;
13408;SDS011;6775;49.574;11.170;2023-03-04T00:06:03;17.87;;;9.80;;
13408;SDS011;6775;49.574;11.170;2023-03-04T00:08:32;21.80;;;10.60;;
13408;SDS011;6775;49.574;11.170;2023-03-04T00:11:01;24.07;;;11.67;;
13408;SDS011;6775;49.574;11.170;2023-03-04T00:13:29;18.70;;;9.93;;
13408;SDS011;6775;49.574;11.170;2023-03-04T00:15:57;16.43;;;9.57;;
13408;SDS011;6775;49.574;11.170;2023-03-04T00:18:25;16.90;;;9.13;;
13408;SDS011;6775;49.574;11.170;2023-03-04T00:20:52;20.97;;;9.00;;
13408;SDS011;6775;49.574;11.170;2023-03-04T00:23:20;16.50;;;8.77;;
13408;SDS011;6775;49.574;11.170;2023-03-04T00:25:48;20.77;;;10.63;;
13408;SDS011;6775;49.574;11.170;2023-03-04T00:28:17;16.90;;;8.70;;
13408;SDS011;6775;49.574;11.170;2023-03-04T00:30:45;19.90;;;9.30;;
13408;SDS011;6775;49.574;11.170;2023-03-04T00:33:13;16.93;;;8.67;;
13408;SDS011;6775;49.574;11.170;2023-03-04T00:35:41;19.83;;;8.93;;
13408;SDS011;6775;49.574;11.170;2023-03-04T00:38:09;20.20;;;10.57;;
13408;SDS011;6775;49.574;11.170;2023-03-04T00:40:37;19.20;;;10.33;;
13408;SDS011;6775;49.574;11.170;2023-03-04T00:43:05;16.53;;;9.80;;
13408;SDS011;6775;49.574;11.170;2023-03-04T00:45:34;17.80;;;9.37;;
13408;SDS011;6775;49.574;11.170;2023-03-04T00:48:02;16.83;;;9.37;;
13408;SDS011;6775;49.574;11.170;2023-03-04T00:50:30;15.37;;;8.37;;
13408;SDS011;6775;49.574;11.170;2023-03-04T00:52:57;15.40;;;8.33;;
13408;SDS011;6775;49.574;11.170;2023-03-04T00:55:26;13.97;;;8.23;;
13408;SDS011;6775;49.574;11.170;2023-03-04T00:57:54;14.40;;;7.67;;
13408;SDS011;6775;49.574;11.170;2023-03-04T01:00:22;15.03;;;7.97;;
13408;SDS011;6775;49.574;11.170;2023-03-04T01:02:51;12.30;;;7.80;;
13408;SDS011;6775;49.574;11.170;2023-03-04T01:05:19;13.27;;;7.20;;
13408;SDS011;6775;49.574;11.170;2023-03-04T01:07:48;11.77;;;7.23;;
13408;SDS011;6775;49.574;11.170;2023-03-04T01:10:16;12.17;;;7.20;;
13408;SDS011;6775;49.574;11.170;2023-03-04T01:12:44;11.63;;;7.17;;
13408;SDS011;6775;49.574;11.170;2023-03-04T01:15:12;11.37;;;6.63;;
13408;SDS011;6775;49.574;11.170;2023-03-04T01:17:40;12.67;;;8.07;;
13408;SDS011;6775;49.574;11.170;2023-03-04T01:20:10;11.17;;;6.93;;
13408;SDS011;6775;49.574;11.170;2023-03-04T01:22:38;11.17;;;7.53;;
13408;SDS011;6775;49.574;11.170;2023-03-04T01:25:07;12.43;;;7.47;;
13408;SDS011;6775;49.574;11.170;2023-03-04T01:27:35;12.67;;;6.93;;
13408;SDS011;6775;49.574;11.170;2023-03-04T01:30:03;11.20;;;6.90;;
13408;SDS011;6775;49.574;11.170;2023-03-04T01:32:32;17.83;;;8.07;;
13408;SDS011;6775;49.574;11.170;2023-03-04T01:35:00;10.97;;;6.93;;
13408;SDS011;6775;49.574;11.170;2023-03-04T01:37:29;11.77;;;7.53;;
13408;SDS011;6775;49.574;11.170;2023-03-04T01:39:57;12.80;;;6.70;;
13408;SDS011;6775;49.574;11.170;2023-03-04T01:42:25;11.83;;;6.80;;
13408;SDS011;6775;49.574;11.170;2023-03-04T01:44:56;12.33;;;6.93;;
13408;SDS011;6775;49.574;11.170;2023-03-04T01:47:25;11.67;;;7.00;;
13408;SDS011;6775;49.574;11.170;2023-03-04T01:49:56;12.50;;;7.43;;
13408;SDS011;6775;49.574;11.170;2023-03-04T01:52:24;9.43;;;6.83;;
13408;SDS011;6775;49.574;11.170;2023-03-04T01:54:55;11.83;;;6.87;;
13408;SDS011;6775;49.574;11.170;2023-03-04T01:57:24;11.30;;;6.93;;
13408;SDS011;6775;49.574;11.170;2023-03-04T02:02:44;10.30;;;6.60;;
13408;SDS011;6775;49.574;11.170;2023-03-04T02:05:13;10.53;;;6.77;;
13408;SDS011;6775;49.574;11.170;2023-03-04T02:07:41;11.40;;;6.87;;
13408;SDS011;6775;49.574;11.170;2023-03-04T02:10:11;11.93;;;7.30;;
13408;SDS011;6775;49.574;11.170;2023-03-04T02:12:39;12.07;;;7.03;;
13408;SDS011;6775;49.574;11.170;2023-03-04T02:15:07;13.70;;;7.87;;
13408;SDS011;6775;49.574;11.170;2023-03-04T02:17:36;10.87;;;7.23;;
13408;SDS011;6775;49.574;11.170;2023-03-04T02:20:06;13.73;;;7.30;;
13408;SDS011;6775;49.574;11.170;2023-03-04T02:22:48;11.50;;;7.47;;
13408;SDS011;6775;49.574;11.170;2023-03-04T02:25:25;15.50;;;8.10;;
13408;SDS011;6775;49.574;11.170;2023-03-04T02:27:58;12.53;;;6.93;;
13408;SDS011;6775;49.574;11.170;2023-03-04T02:30:26;10.57;;;6.47;;
13408;SDS011;6775;49.574;11.170;2023-03-04T02:32:54;12.47;;;6.47;;
13408;SDS011;6775;49.574;11.170;2023-03-04T02:35:22;11.70;;;7.07;;
13408;SDS011;6775;49.574;11.170;2023-03-04T02:37:50;10.47;;;6.50;;
13408;SDS011;6775;49.574;11.170;2023-03-04T02:40:20;10.40;;;6.93;;
13408;SDS011;6775;49.574;11.170;2023-03-04T02:42:53;10.67;;;7.17;;
13408;SDS011;6775;49.574;11.170;2023-03-04T02:45:31;9.27;;;6.30;;
13408;SDS011;6775;49.574;11.170;2023-03-04T02:48:03;10.37;;;7.10;;
13408;SDS011;6775;49.574;11.170;2023-03-04T02:50:32;9.93;;;6.77;;
13408;SDS011;6775;49.574;11.170;2023-03-04T02:53:03;13.23;;;6.90;;
13408;SDS011;6775;49.574;11.170;2023-03-04T02:55:31;10.77;;;6.83;;
13408;SDS011;6775;49.574;11.170;2023-03-04T02:57:59;10.20;;;7.00;;
13408;SDS011;6775;49.574;11.170;2023-03-04T03:00:27;11.73;;;7.03;;
13408;SDS011;6775;49.574;11.170;2023-03-04T03:02:57;13.77;;;8.00;;
13408;SDS011;6775;49.574;11.170;2023-03-04T03:05:25;13.10;;;6.80;;
13408;SDS011;6775;49.574;11.170;2023-03-04T03:07:57;10.53;;;6.40;;
13408;SDS011;6775;49.574;11.170;2023-03-04T03:10:25;12.63;;;7.67;;
13408;SDS011;6775;49.574;11.170;2023-03-04T03:12:53;12.30;;;7.10;;
13408;SDS011;6775;49.574;11.170;2023-03-04T03:15:21;11.67;;;7.33;;
13408;SDS011;6775;49.574;11.170;2023-03-04T03:17:48;9.33;;;6.87;;
13408;SDS011;6775;49.574;11.170;2023-03-04T03:20:18;13.53;;;8.03;;
13408;SDS011;6775;49.574;11.170;2023-03-04T03:22:46;12.07;;;7.73;;
13408;SDS011;6775;49.574;11.170;2023-03-04T03:25:14;11.70;;;7.70;;
13408;SDS011;6775;49.574;11.170;2023-03-04T03:27:43;14.20;;;7.60;;
13408;SDS011;6775;49.574;11.170;2023-03-04T03:30:12;14.33;;;7.47;;
13408;SDS011;6775;49.574;11.170;2023-03-04T03:32:41;12.20;;;7.43;;
13408;SDS011;6775;49.574;11.170;2023-03-04T03:35:09;13.37;;;8.13;;
13408;SDS011;6775;49.574;11.170;2023-03-04T03:37:38;16.87;;;8.50;;
13408;SDS011;6775;49.574;11.170;2023-03-04T03:40:06;11.60;;;7.90;;
13408;SDS011;6775;49.574;11.170;2023-03-04T03:42:35;11.60;;;7.97;;
13408;SDS011;6775;49.574;11.170;2023-03-04T03:45:03;12.00;;;7.40;;
13408;SDS011;6775;49.574;11.170;2023-03-04T03:47:32;16.73;;;8.37;;
13408;SDS011;6775;49.574;11.170;2023-03-04T03:49:59;11.90;;;7.67;;
13408;SDS011;6775;49.574;11.170;2023-03-04T03:52:27;12.70;;;7.87;;
13408;SDS011;6775;49.574;11.170;2023-03-04T03:54:56;11.80;;;7.43;;
13408;SDS011;6775;49.574;11.170;2023-03-04T03:57:27;16.40;;;8.93;;
13408;SDS011;6775;49.574;11.170;2023-03-04T03:59:55;11.73;;;7.50;;
13408;SDS011;6775;49.574;11.170;2023-03-04T04:02:23;13.43;;;7.97;;
13408;SDS011;6775;49.574;11.170;2023-03-04T04:04:51;14.17;;;8.23;;
13408;SDS011;6775;49.574;11.170;2023-03-04T04:07:19;11.50;;;7.53;;
13408;SDS011;6775;49.574;11.170;2023-03-04T04:09:47;14.07;;;7.90;;
13408;SDS011;6775;49.574;11.170;2023-03-04T04:12:16;14.67;;;7.80;;
13408;SDS011;6775;49.574;11.170;2023-03-04T04:14:45;12.50;;;7.90;;
13408;SDS011;6775;49.574;11.170;2023-03-04T04:17:13;12.40;;;7.60;;
13408;SDS011;6775;49.574;11.170;2023-03-04T04:19:41;12.43;;;7.10;;
13408;SDS011;6775;49.574;11.170;2023-03-04T04:22:11;13.73;;;7.50;;
13408;SDS011;6775;49.574;11.170;2023-03-04T04:24:41;11.60;;;7.33;;
13408;SDS011;6775;49.574;11.170;2023-03-04T04:27:09;8.10;;;5.77;;
13408;SDS011;6775;49.574;11.170;2023-03-04T04:29:38;9.57;;;6.60;;
13408;SDS011;6775;49.574;11.170;2023-03-04T04:32:07;9.43;;;6.23;;
13408;SDS011;6775;49.574;11.170;2023-03-04T04:34:35;11.13;;;6.80;;
13408;SDS011;6775;49.574;11.170;2023-03-04T04:37:03;10.07;;;6.33;;
13408;SDS011;6775;49.574;11.170;2023-03-04T04:39:30;11.77;;;7.03;;
13408;SDS011;6775;49.574;11.170;2023-03-04T04:41:58;10.87;;;6.33;;
13408;SDS011;6775;49.574;11.170;2023-03-04T04:44:26;9.00;;;5.73;;
13408;SDS011;6775;49.574;11.170;2023-03-04T04:46:55;11.87;;;6.60;;
13408;SDS011;6775;49.574;11.170;2023-03-04T04:49:23;10.47;;;6.27;;
13408;SDS011;6775;49.574;11.170;2023-03-04T04:51:51;10.20;;;6.00;;
13408;SDS011;6775;49.574;11.170;2023-03-04T04:54:18;8.23;;;5.73;;
13408;SDS011;6775;49.574;11.170;2023-03-04T04:56:46;6.57;;;4.73;;
13408;SDS011;6775;49.574;11.170;2023-03-04T04:59:14;10.03;;;5.80;;
13408;SDS011;6775;49.574;11.170;2023-03-04T05:01:42;11.53;;;6.30;;
13408;SDS011;6775;49.574;11.170;2023-03-04T05:04:11;10.17;;;6.60;;
13408;SDS011;6775;49.574;11.170;2023-03-04T05:06:39;11.73;;;6.20;;
13408;SDS011;6775;49.574;11.170;2023-03-04T05:09:07;11.23;;;6.07;;
13408;SDS011;6775;49.574;11.170;2023-03-04T05:11:35;11.33;;;7.33;;
13408;SDS011;6775;49.574;11.170;2023-03-04T05:14:03;11.80;;;6.40;;
13408;SDS011;6775;49.574;11.170;2023-03-04T05:16:30;10.07;;;6.27;;
13408;SDS011;6775;49.574;11.170;2023-03-04T05:18:59;9.40;;;6.47;;
13408;SDS011;6775;49.574;11.170;2023-03-04T05:21:28;11.97;;;6.67;;
13408;SDS011;6775;49.574;11.170;2023-03-04T05:23:56;11.23;;;6.23;;
13408;SDS011;6775;49.574;11.170;2023-03-04T05:26:24;9.43;;;5.40;;
13408;SDS011;6775;49.574;11.170;2023-03-04T05:28:52;10.47;;;5.93;;
13408;SDS011;6775;49.574;11.170;2023-03-04T05:31:20;10.37;;;6.30;;
13408;SDS011;6775;49.574;11.170;2023-03-04T05:33:47;11.10;;;7.07;;
13408;SDS011;6775;49.574;11.170;2023-03-04T05:36:15;11.90;;;7.03;;
13408;SDS011;6775;49.574;11.170;2023-03-04T05:38:44;10.80;;;6.57;;
13408;SDS011;6775;49.574;11.170;2023-03-04T05:41:12;9.83;;;6.33;;
13408;SDS011;6775;49.574;11.170;2023-03-04T05:43:40;8.53;;;5.97;;
13408;SDS011;6775;49.574;11.170;2023-03-04T05:46:10;8.57;;;5.70;;
13408;SDS011;6775;49.574;11.170;2023-03-04T05:48:40;10.40;;;6.43;;
13408;SDS011;6775;49.574;11.170;2023-03-04T05:51:09;12.43;;;6.60;;
13408;SDS011;6775;49.574;11.170;2023-03-04T05:53:37;10.07;;;6.17;;
13408;SDS011;6775;49.574;11.170;2023-03-04T05:56:07;13.93;;;7.53;;
13408;SDS011;6775;49.574;11.170;2023-03-04T05:58:35;11.87;;;6.43;;
13408;SDS011;6775;49.574;11.170;2023-03-04T06:01:04;12.13;;;6.93;;
13408;SDS011;6775;49.574;11.170;2023-03-04T06:03:32;12.10;;;7.03;;
13408;SDS011;6775;49.574;11.170;2023-03-04T06:06:00;11.53;;;7.20;;
13408;SDS011;6775;49.574;11.170;2023-03-04T06:08:28;12.63;;;7.07;;
13408;SDS011;6775;49.574;11.170;2023-03-04T06:10:56;11.73;;;7.73;;
13408;SDS011;6775;49.574;11.170;2023-03-04T06:13:26;12.10;;;7.50;;
13408;SDS011;6775;49.574;11.170;2023-03-04T06:15:54;11.00;;;7.00;;
13408;SDS011;6775;49.574;11.170;2023-03-04T06:18:23;14.83;;;7.87;;
13408;SDS011;6775;49.574;11.170;2023-03-04T06:20:54;12.67;;;7.13;;
13408;SDS011;6775;49.574;11.170;2023-03-04T06:23:23;14.63;;;8.17;;
13408;SDS011;6775;49.574;11.170;2023-03-04T06:25:51;13.40;;;8.13;;
13408;SDS011;6775;49.574;11.170;2023-03-04T06:28:22;12.10;;;7.13;;
13408;SDS011;6775;49.574;11.170;2023-03-04T06:30:51;15.53;;;8.23;;
13408;SDS011;6775;49.574;11.170;2023-03-04T06:33:20;12.33;;;7.07;;
13408;SDS011;6775;49.574;11.170;2023-03-04T06:35:52;14.23;;;7.93;;
13408;SDS011;6775;49.574;11.170;2023-03-04T06:38:21;12.27;;;8.10;;
13408;SDS011;6775;49.574;11.170;2023-03-04T06:40:49;17.53;;;8.57;;
13408;SDS011;6775;49.574;11.170;2023-03-04T06:43:17;14.50;;;8.30;;
13408;SDS011;6775;49.574;11.170;2023-03-04T06:45:45;13.73;;;7.93;;
13408;SDS011;6775;49.574;11.170;2023-03-04T06:48:14;12.07;;;7.50;;
13408;SDS011;6775;49.574;11.170;2023-03-04T06:50:42;11.67;;;7.47;;
13408;SDS011;6775;49.574;11.170;2023-03-04T06:53:10;14.13;;;6.87;;
13408;SDS011;6775;49.574;11.170;2023-03-04T06:55:38;9.60;;;6.30;;
13408;SDS011;6775;49.574;11.170;2023-03-04T06:58:06;10.10;;;6.30;;
13408;SDS011;6775;49.574;11.170;2023-03-04T07:00:33;12.80;;;7.70;;
13408;SDS011;6775;49.574;11.170;2023-03-04T07:03:01;14.30;;;7.57;;
13408;SDS011;6775;49.574;11.170;2023-03-04T07:05:31;13.23;;;7.17;;
13408;SDS011;6775;49.574;11.170;2023-03-04T07:07:58;11.90;;;7.23;;
13408;SDS011;6775;49.574;11.170;2023-03-04T07:10:26;11.57;;;7.07;;
13408;SDS011;6775;49.574;11.170;2023-03-04T07:12:54;11.93;;;7.30;;
13408;SDS011;6775;49.574;11.170;2023-03-04T07:15:22;9.77;;;6.87;;
13408;SDS011;6775;49.574;11.170;2023-03-04T07:17:50;12.97;;;7.30;;
13408;SDS011;6775;49.574;11.170;2023-03-04T07:20:17;11.00;;;6.83;;
13408;SDS011;6775;49.574;11.170;2023-03-04T07:22:47;14.57;;;7.97;;
13408;SDS011;6775;49.574;11.170;2023-03-04T07:25:15;10.60;;;7.20;;
13408;SDS011;6775;49.574;11.170;2023-03-04T07:27:43;15.80;;;8.43;;
13408;SDS011;6775;49.574;11.170;2023-03-04T07:30:11;13.03;;;7.73;;
13408;SDS011;6775;49.574;11.170;2023-03-04T07:32:39;13.87;;;7.40;;
13408;SDS011;6775;49.574;11.170;2023-03-04T07:35:07;13.57;;;7.90;;
13408;SDS011;6775;49.574;11.170;2023-03-04T07:37:35;14.60;;;7.63;;
13408;SDS011;6775;49.574;11.170;2023-03-04T07:40:05;11.37;;;7.30;;
13408;SDS011;6775;49.574;11.170;2023-03-04T07:42:34;12.93;;;7.80;;
13408;SDS011;6775;49.574;11.170;2023-03-04T07:45:02;16.50;;;9.30;;
13408;SDS011;6775;49.574;11.170;2023-03-04T07:47:31;13.40;;;7.33;;
13408;SDS011;6775;49.574;11.170;2023-03-04T07:49:59;13.43;;;7.90;;
13408;SDS011;6775;49.574;11.170;2023-03-04T07:52:27;12.33;;;7.60;;
13408;SDS011;6775;49.574;11.170;2023-03-04T07:54:54;13.90;;;7.57;;
13408;SDS011;6775;49.574;11.170;2023-03-04T07:57:24;12.33;;;7.87;;
13408;SDS011;6775;49.574;11.170;2023-03-04T07:59:51;14.47;;;8.03;;
13408;SDS011;6775;49.574;11.170;2023-03-04T08:02:19;14.10;;;7.37;;
13408;SDS011;6775;49.574;11.170;2023-03-04T08:04:47;14.80;;;8.83;;
13408;SDS011;6775;49.574;11.170;2023-03-04T08:07:15;12.43;;;7.67;;
13408;SDS011;6775;49.574;11.170;2023-03-04T08:09:43;14.40;;;7.83;;
13408;SDS011;6775;49.574;11.170;2023-03-04T08:12:11;15.07;;;8.30;;
13408;SDS011;6775;49.574;11.170;2023-03-04T08:14:40;16.23;;;9.03;;
13408;SDS011;6775;49.574;11.170;2023-03-04T08:17:08;14.70;;;9.10;;
13408;SDS011;6775;49.574;11.170;2023-03-04T08:19:36;13.77;;;8.20;;
13408;SDS011;6775;49.574;11.170;2023-03-04T08:22:04;13.97;;;8.30;;
13408;SDS011;6775;49.574;11.170;2023-03-04T08:24:31;13.23;;;7.63;;
13408;SDS011;6775;49.574;11.170;2023-03-04T08:27:00;15.03;;;7.70;;
13408;SDS011;6775;49.574;11.170;2023-03-04T08:29:27;16.00;;;8.83;;
13408;SDS011;6775;49.574;11.170;2023-03-04T08:31:57;14.47;;;8.90;;
13408;SDS011;6775;49.574;11.170;2023-03-04T08:34:25;13.33;;;8.80;;
13408;SDS011;6775;49.574;11.170;2023-03-04T08:36:54;13.40;;;8.60;;
13408;SDS011;6775;49.574;11.170;2023-03-04T08:39:22;15.97;;;8.97;;
13408;SDS011;6775;49.574;11.170;2023-03-04T08:41:50;16.57;;;8.47;;
13408;SDS011;6775;49.574;11.170;2023-03-04T08:44:17;15.47;;;7.90;;
13408;SDS011;6775;49.574;11.170;2023-03-04T08:46:45;15.57;;;8.70;;
13408;SDS011;6775;49.574;11.170;2023-03-04T08:49:15;14.37;;;8.80;;
13408;SDS011;6775;49.574;11.170;2023-03-04T08:51:43;12.90;;;9.10;;
13408;SDS011;6775;49.574;11.170;2023-03-04T08:54:11;14.80;;;8.63;;
13408;SDS011;6775;49.574;11.170;2023-03-04T08:56:39;15.27;;;8.90;;
13408;SDS011;6775;49.574;11.170;2023-03-04T08:59:07;14.83;;;9.30;;
13408;SDS011;6775;49.574;11.170;2023-03-04T09:01:34;16.37;;;8.27;;
13408;SDS011;6775;49.574;11.170;2023-03-04T09:04:02;14.37;;;8.10;;
13408;SDS011;6775;49.574;11.170;2023-03-04T09:06:32;16.17;;;9.50;;
13408;SDS011;6775;49.574;11.170;2023-03-04T09:08:59;14.13;;;8.00;;
13408;SDS011;6775;49.574;11.170;2023-03-04T09:11:27;17.40;;;9.30;;
13408;SDS011;6775;49.574;11.170;2023-03-04T09:13:55;16.20;;;9.00;;
13408;SDS011;6775;49.574;11.170;2023-03-04T09:16:23;15.00;;;8.43;;
13408;SDS011;6775;49.574;11.170;2023-03-04T09:18:51;14.20;;;7.60;;
13408;SDS011;6775;49.574;11.170;2023-03-04T09:21:19;12.90;;;7.73;;
13408;SDS011;6775;49.574;11.170;2023-03-04T09:23:48;13.77;;;8.07;;
13408;SDS011;6775;49.574;11.170;2023-03-04T09:26:17;15.13;;;8.90;;
13408;SDS011;6775;49.574;11.170;2023-03-04T09:28:51;16.13;;;8.87;;
13408;SDS011;6775;49.574;11.170;2023-03-04T09:31:20;16.50;;;9.43;;
13408;SDS011;6775;49.574;11.170;2023-03-04T09:33:48;15.60;;;9.87;;
13408;SDS011;6775;49.574;11.170;2023-03-04T09:36:16;18.40;;;9.47;;
13408;SDS011;6775;49.574;11.170;2023-03-04T09:38:44;22.40;;;11.50;;
13408;SDS011;6775;49.574;11.170;2023-03-04T09:41:14;22.60;;;11.23;;
13408;SDS011;6775;49.574;11.170;2023-03-04T09:43:44;32.60;;;14.67;;
13408;SDS011;6775;49.574;11.170;2023-03-04T09:46:14;24.47;;;12.77;;
13408;SDS011;6775;49.574;11.170;2023-03-04T09:48:45;20.07;;;11.60;;
13408;SDS011;6775;49.574;11.170;2023-03-04T09:51:20;15.20;;;10.03;;
13408;SDS011;6775;49.574;11.170;2023-03-04T09:53:54;18.70;;;9.87;;
13408;SDS011;6775;49.574;11.170;2023-03-04T09:56:34;12.93;;;8.53;;
13408;SDS011;6775;49.574;11.170;2023-03-04T09:59:07;18.53;;;10.30;;
13408;SDS011;6775;49.574;11.170;2023-03-04T10:01:41;13.17;;;9.07;;
13408;SDS011;6775;49.574;11.170;2023-03-04T10:04:16;16.80;;;9.53;;
13408;SDS011;6775;49.574;11.170;2023-03-04T10:06:48;13.70;;;8.57;;
13408;SDS011;6775;49.574;11.170;2023-03-04T10:09:20;13.30;;;8.67;;
13408;SDS011;6775;49.574;11.170;2023-03-04T10:11:56;13.53;;;9.70;;
13408;SDS011;6775;49.574;11.170;2023-03-04T10:14:32;14.60;;;9.77;;
13408;SDS011;6775;49.574;11.170;2023-03-04T10:17:05;16.27;;;9.57;;
13408;SDS011;6775;49.574;11.170;2023-03-04T10:19:44;15.60;;;9.50;;
13408;SDS011;6775;49.574;11.170;2023-03-04T10:22:20;15.77;;;9.07;;
13408;SDS011;6775;49.574;11.170;2023-03-04T10:24:54;16.20;;;9.00;;
13408;SDS011;6775;49.574;11.170;2023-03-04T10:27:25;14.90;;;9.60;;
13408;SDS011;6775;49.574;11.170;2023-03-04T10:29:55;14.67;;;9.30;;
13408;SDS011;6775;49.574;11.170;2023-03-04T10:32:26;16.43;;;9.73;;
13408;SDS011;6775;49.574;11.170;2023-03-04T10:34:54;12.90;;;8.50;;
13408;SDS011;6775;49.574;11.170;2023-03-04T10:37:22;13.70;;;8.50;;
13408;SDS011;6775;49.574;11.170;2023-03-04T10:39:50;12.73;;;9.10;;
13408;SDS011;6775;49.574;11.170;2023-03-04T10:42:22;12.10;;;8.03;;
13408;SDS011;6775;49.574;11.170;2023-03-04T10:45:02;11.53;;;7.33;;
13408;SDS011;6775;49.574;11.170;2023-03-04T10:47:31;10.30;;;7.60;;
13408;SDS011;6775;49.574;11.170;2023-03-04T10:50:01;18.17;;;11.33;;
13408;SDS011;6775;49.574;11.170;2023-03-04T10:52:31;18.87;;;12.03;;
13408;SDS011;6775;49.574;11.170;2023-03-04T10:55:04;19.13;;;11.37;;
13408;SDS011;6775;49.574;11.170;2023-03-04T10:57:42;15.37;;;8.97;;
13408;SDS011;6775;49.574;11.170;2023-03-04T11:00:20;16.23;;;9.57;;
13408;SDS011;6775;49.574;11.170;2023-03-04T11:05:49;12.93;;;6.90;;
13408;SDS011;6775;49.574;11.170;2023-03-04T11:08:19;12.03;;;7.90;;
13408;SDS011;6775;49.574;11.170;2023-03-04T11:10:48;11.63;;;7.20;;
13408;SDS011;6775;49.574;11.170;2023-03-04T11:13:19;9.23;;;6.80;;
13408;SDS011;6775;49.574;11.170;2023-03-04T11:15:49;9.97;;;6.20;;
13408;SDS011;6775;49.574;11.170;2023-03-04T11:18:19;10.40;;;6.67;;
13408;SDS011;6775;49.574;11.170;2023-03-04T11:20:52;9.57;;;5.90;;
13408;SDS011;6775;49.574;11.170;2023-03-04T11:23:31;11.63;;;6.67;;
13408;SDS011;6775;49.574;11.170;2023-03-04T11:26:02;10.00;;;7.50;;
13408;SDS011;6775;49.574;11.170;2023-03-04T11:28:38;10.40;;;6.80;;
13408;SDS011;6775;49.574;11.170;2023-03-04T11:31:12;9.17;;;6.23;;
13408;SDS011;6775;49.574;11.170;2023-03-04T11:33:43;11.80;;;7.23;;
13408;SDS011;6775;49.574;11.170;2023-03-04T11:36:20;10.27;;;6.10;;
13408;SDS011;6775;49.574;11.170;2023-03-04T11:38:55;7.93;;;5.87;;
13408;SDS011;6775;49.574;11.170;2023-03-04T11:41:24;7.80;;;6.23;;
13408;SDS011;6775;49.574;11.170;2023-03-04T11:43:58;10.53;;;6.60;;
13408;SDS011;6775;49.574;11.170;2023-03-04T11:46:42;10.13;;;6.07;;
13408;SDS011;6775;49.574;11.170;2023-03-04T11:49:27;8.53;;;5.67;;
13408;SDS011;6775;49.574;11.170;2023-03-04T11:52:13;15.17;;;7.40;;
13408;SDS011;6775;49.574;11.170;2023-03-04T11:54:55;10.27;;;6.00;;
13408;SDS011;6775;49.574;11.170;2023-03-04T11:57:41;8.53;;;5.57;;
13408;SDS011;6775;49.574;11.170;2023-03-04T12:00:22;14.40;;;7.77;;
13408;SDS011;6775;49.574;11.170;2023-03-04T12:03:12;9.53;;;6.50;;
13408;SDS011;6775;49.574;11.170;2023-03-04T12:05:52;11.53;;;7.33;;
13408;SDS011;6775;49.574;11.170;2023-03-04T12:08:28;10.13;;;6.73;;
13408;SDS011;6775;49.574;11.170;2023-03-04T12:11:06;12.20;;;8.03;;
13408;SDS011;6775;49.574;11.170;2023-03-04T12:13:54;13.27;;;8.50;;
13408;SDS011;6775;49.574;11.170;2023-03-04T12:16:36;9.37;;;6.10;;
13408;SDS011;6775;49.574;11.170;2023-03-04T12:19:22;10.80;;;7.10;;
13408;SDS011;6775;49.574;11.170;2023-03-04T12:21:58;11.07;;;6.73;;
13408;SDS011;6775;49.574;11.170;2023-03-04T12:24:41;12.53;;;8.40;;
13408;SDS011;6775;49.574;11.170;2023-03-04T12:27:36;10.90;;;6.73;;
13408;SDS011;6775;49.574;11.170;2023-03-04T12:30:15;17.67;;;11.63;;
13408;SDS011;6775;49.574;11.170;2023-03-04T12:32:55;16.80;;;11.20;;
13408;SDS011;6775;49.574;11.170;2023-03-04T12:35:36;11.00;;;8.70;;
13408;SDS011;6775;49.574;11.170;2023-03-04T12:38:20;14.33;;;7.47;;
13408;SDS011;6775;49.574;11.170;2023-03-04T12:41:00;11.13;;;7.27;;
13408;SDS011;6775;49.574;11.170;2023-03-04T12:43:41;10.77;;;7.63;;
13408;SDS011;6775;49.574;11.170;2023-03-04T12:46:20;12.93;;;7.10;;
13408;SDS011;6775;49.574;11.170;2023-03-04T12:51:59;13.77;;;8.60;;
13408;SDS011;6775;49.574;11.170;2023-03-04T12:54:35;13.80;;;8.33;;
13408;SDS011;6775;49.574;11.170;2023-03-04T12:57:08;10.13;;;7.17;;
13408;SDS011;6775;49.574;11.170;2023-03-04T12:59:39;14.20;;;7.07;;
13408;SDS011;6775;49.574;11.170;2023-03-04T13:02:24;11.10;;;7.33;;
13408;SDS011;6775;49.574;11.170;2023-03-04T13:05:06;9.60;;;6.90;;
13408;SDS011;6775;49.574;11.170;2023-03-04T13:07:47;10.40;;;7.23;;
13408;SDS011;6775;49.574;11.170;2023-03-04T13:10:24;11.47;;;7.03;;
13408;SDS011;6775;49.574;11.170;2023-03-04T13:12:53;12.23;;;7.43;;
13408;SDS011;6775;49.574;11.170;2023-03-04T13:15:27;10.43;;;7.47;;
13408;SDS011;6775;49.574;11.170;2023-03-04T13:17:57;10.63;;;6.90;;
13408;SDS011;6775;49.574;11.170;2023-03-04T13:20:34;8.87;;;6.17;;
13408;SDS011;6775;49.574;11.170;2023-03-04T13:23:20;10.60;;;6.47;;
13408;SDS011;6775;49.574;11.170;2023-03-04T13:28:51;10.50;;;6.50;;
13408;SDS011;6775;49.574;11.170;2023-03-04T13:31:21;10.20;;;6.60;;
13408;SDS011;6775;49.574;11.170;2023-03-04T13:33:56;10.60;;;7.07;;
13408;SDS011;6775;49.574;11.170;2023-03-04T13:36:31;12.50;;;7.90;;
13408;SDS011;6775;49.574;11.170;2023-03-04T13:48:03;19.53;;;11.00;;
13408;SDS011;6775;49.574;11.170;2023-03-04T13:50:49;10.57;;;7.03;;
13408;SDS011;6775;49.574;11.170;2023-03-04T13:53:21;12.33;;;6.40;;
13408;SDS011;6775;49.574;11.170;2023-03-04T13:58:51;10.87;;;7.03;;
13408;SDS011;6775;49.574;11.170;2023-03-04T14:01:31;10.53;;;6.90;;
13408;SDS011;6775;49.574;11.170;2023-03-04T14:04:00;11.10;;;6.20;;
13408;SDS011;6775;49.574;11.170;2023-03-04T14:06:40;9.83;;;5.87;;
13408;SDS011;6775;49.574;11.170;2023-03-04T14:09:12;10.10;;;6.50;;
13408;SDS011;6775;49.574;11.170;2023-03-04T14:11:42;8.73;;;5.80;;
13408;SDS011;6775;49.574;11.170;2023-03-04T14:14:11;11.73;;;7.17;;
13408;SDS011;6775;49.574;11.170;2023-03-04T14:16:44;11.10;;;6.90;;
13408;SDS011;6775;49.574;11.170;2023-03-04T14:19:16;49.83;;;21.03;;
13408;SDS011;6775;49.574;11.170;2023-03-04T14:21:49;18.37;;;10.40;;
13408;SDS011;6775;49.574;11.170;2023-03-04T14:24:18;12.57;;;7.97;;
13408;SDS011;6775;49.574;11.170;2023-03-04T14:26:47;15.93;;;10.03;;
13408;SDS011;6775;49.574;11.170;2023-03-04T14:29:20;11.33;;;7.17;;
13408;SDS011;6775;49.574;11.170;2023-03-04T14:31:49;11.70;;;7.90;;
13408;SDS011;6775;49.574;11.170;2023-03-04T14:34:20;16.43;;;9.50;;
13408;SDS011;6775;49.574;11.170;2023-03-04T14:36:52;16.63;;;10.00;;
13408;SDS011;6775;49.574;11.170;2023-03-04T14:39:21;20.80;;;11.33;;
13408;SDS011;6775;49.574;11.170;2023-03-04T14:41:52;14.20;;;9.73;;
13408;SDS011;6775;49.574;11.170;2023-03-04T14:44:28;15.00;;;9.23;;
13408;SDS011;6775;49.574;11.170;2023-03-04T14:47:05;15.40;;;9.37;;
13408;SDS011;6775;49.574;11.170;2023-03-04T14:49:42;12.40;;;7.27;;
13408;SDS011;6775;49.574;11.170;2023-03-04T14:52:25;17.07;;;9.60;;
13408;SDS011;6775;49.574;11.170;2023-03-04T14:55:08;14.37;;;8.07;;
13408;SDS011;6775;49.574;11.170;2023-03-04T14:57:45;9.40;;;7.53;;
13408;SDS011;6775;49.574;11.170;2023-03-04T15:00:15;11.53;;;7.80;;
13408;SDS011;6775;49.574;11.170;2023-03-04T15:02:50;13.53;;;7.50;;
13408;SDS011;6775;49.574;11.170;2023-03-04T15:05:22;10.97;;;8.03;;
13408;SDS011;6775;49.574;11.170;2023-03-04T15:07:53;12.53;;;7.83;;
13408;SDS011;6775;49.574;11.170;2023-03-04T15:10:24;13.03;;;9.07;;
13408;SDS011;6775;49.574;11.170;2023-03-04T15:12:54;14.10;;;8.13;;
13408;SDS011;6775;49.574;11.170;2023-03-04T15:15:35;13.20;;;8.97;;
13408;SDS011;6775;49.574;11.170;2023-03-04T15:18:17;13.27;;;8.73;;
13408;SDS011;6775;49.574;11.170;2023-03-04T15:20:52;13.73;;;9.27;;